Monolith, California
Current Conditions -  °F | °C
As of 5:15 PM on Tuesday 21 Oct 2014 (Local Time) from KMHV Reporting Station
Clear Clear  
Wind Chill: 68°   Ceiling: Unl
Heat Index: 68°   Visibility: 10mi
Dew Point: 39°   Wind: 20mph
Humidity: 35%   Direction: 280°W
Pressure: 29.88"   Gusts: 25mph
Location:  35.1338°N, 118.552°W
Report Text: KMHV 220015Z AUTO 28017G22KT 10SM CLR 20/04 A2988 RMK AO1
Loading
Personal Weather Stations






























Interactive Weather Map
Tropical Storm Tracking
New forecast layout! Learn more

10-Day Weather Forecast

Advertisements
Track Severe Weather on mobile